Pine Island, New York
Current Conditions -  °F | °C
As of 8:53 AM on Friday 28 Nov 2014 (Local Time) from KFWN Reporting Station
Few Clouds Few Clouds  
Wind Chill: 29°   Ceiling: Unl
Heat Index: 29°   Visibility: 10mi
Dew Point: 21°   Wind: 3mph
Humidity: 72%   Direction: NA
Pressure: 30.17"   Gusts: NA
Location:  41.3°N, 74.46°W
Report Text: KFWN 281353Z AUTO VRB03KT 10SM FEW036 M02/M06 A3017 RMK AO2 SLP219 T10171061
Loading
Personal Weather Stations






























Interactive Weather Map New forecast layout! Learn more

10-Day Weather Forecast

Advertisements
Track Severe Weather on mobile